createdAt,value
2023-11-14T00:00:39.641Z,-18449.97
2023-11-14T00:03:42.657Z,-18448.88
2023-11-14T00:06:45.054Z,-18449.16
2023-11-14T00:09:49.554Z,-18450.53
2023-11-14T00:12:52.489Z,-18450.78
2023-11-14T00:15:55.446Z,-18452.59
2023-11-14T00:18:58.295Z,-18451.88
2023-11-14T00:22:01.192Z,-18453.94
2023-11-14T00:25:03.846Z,-18453.94
2023-11-14T00:28:06.494Z,-18453.53
2023-11-14T00:31:09.035Z,-18452.44
2023-11-14T00:34:11.804Z,-18451.88
2023-11-14T00:37:15.411Z,-18451.06
2023-11-14T00:40:18.513Z,-18449.16
2023-11-14T00:43:21.250Z,-18448.19
2023-11-14T00:46:24.265Z,-18449.44
2023-11-14T00:49:29.140Z,-18447.22
2023-11-14T00:52:33.190Z,-18448.47
2023-11-14T00:55:35.762Z,-18447.91
2023-11-14T00:58:39.534Z,-18447.38
2023-11-14T01:01:42.230Z,-18447.78
2023-11-14T01:04:45.664Z,-18447.22
2023-11-14T01:07:48.030Z,-18447.78
2023-11-14T01:10:52.912Z,-18448.47
2023-11-14T01:13:56.121Z,-18447.78
2023-11-14T01:16:58.912Z,-18447.78
2023-11-14T01:20:01.743Z,-18447.50
2023-11-14T01:23:04.809Z,-18447.50
2023-11-14T01:26:08.228Z,-18448.06
2023-11-14T01:29:10.979Z,-18449.28
2023-11-14T01:32:13.666Z,-18451.06
2023-11-14T01:35:17.463Z,-18450.66
2023-11-14T01:38:19.930Z,-18450.09
2023-11-14T01:41:22.610Z,-18451.63
2023-11-14T01:44:25.996Z,-18453.53
2023-11-14T01:47:31.259Z,-18453.25
2023-11-14T01:50:34.905Z,-18455.59
2023-11-14T01:53:38.037Z,-18455.75
2023-11-14T01:56:42.452Z,-18456.56
2023-11-14T01:59:47.136Z,-18455.19
2023-11-14T02:02:49.768Z,-18454.22
2023-11-14T02:05:53.507Z,-18454.09
2023-11-14T02:08:56.249Z,-18453.81
2023-11-14T02:11:59.326Z,-18452.03
2023-11-14T02:15:05.455Z,-18452.72
2023-11-14T02:18:09.548Z,-18453.25
2023-11-14T02:21:15.248Z,-18453.41
2023-11-14T02:24:20.562Z,-18454.50
2023-11-14T02:27:26.344Z,-18454.50
2023-11-14T02:30:29.595Z,-18454.50
2023-11-14T02:33:35.083Z,-18454.22
2023-11-14T02:36:41.236Z,-18455.59
2023-11-14T02:39:43.901Z,-18455.19
2023-11-14T02:42:46.796Z,-18454.63
2023-11-14T02:45:49.414Z,-18455.75
2023-11-14T02:48:52.069Z,-18456.16
2023-11-14T02:51:56.398Z,-18457.94
2023-11-14T02:54:59.036Z,-18456.84
2023-11-14T02:58:01.633Z,-18461.78
2023-11-14T03:01:07.336Z,-18461.22
2023-11-14T03:04:09.970Z,-18463.84
2023-11-14T03:07:12.555Z,-18463.28
2023-11-14T03:10:15.433Z,-18463.28
2023-11-14T03:13:19.202Z,-18465.19
2023-11-14T03:16:22.818Z,-18464.94
2023-11-14T03:19:26.745Z,-18465.19
2023-11-14T03:22:29.249Z,-18466.03
2023-11-14T03:25:31.972Z,-18467.81
2023-11-14T03:28:34.363Z,-18467.13
2023-11-14T03:31:37.469Z,-18467.81
2023-11-14T03:34:40.187Z,-18468.50
2023-11-14T03:37:43.073Z,-18469.72
2023-11-14T03:40:45.801Z,-18470.41
2023-11-14T03:43:48.855Z,-18469.87
2023-11-14T03:46:51.523Z,-18469.72
2023-11-14T03:49:54.597Z,-18470.28
2023-11-14T03:52:56.949Z,-18472.75
2023-11-14T03:56:00.797Z,-18474.53
2023-11-14T03:59:03.416Z,-18475.22
2023-11-14T04:02:06.368Z,-18474.66
2023-11-14T04:05:09.409Z,-18475.91
2023-11-14T04:08:11.910Z,-18475.75
2023-11-14T04:11:14.994Z,-18474.09
2023-11-14T04:14:18.213Z,-18473.16
2023-11-14T04:17:21.106Z,-18472.06
2023-11-14T04:20:23.602Z,-18473.56
2023-11-14T04:23:26.818Z,-18475.75
2023-11-14T04:26:30.398Z,-18475.91
2023-11-14T04:29:33.704Z,-18476.72
2023-11-14T04:32:36.437Z,-18477.69
2023-11-14T04:35:39.146Z,-18477.69
2023-11-14T04:38:42.194Z,-18478.91
2023-11-14T04:41:44.940Z,-18478.78
2023-11-14T04:44:51.497Z,-18478.50
2023-11-14T04:47:54.838Z,-18479.19
2023-11-14T04:50:58.297Z,-18480.28
2023-11-14T04:54:01.078Z,-18483.03
2023-11-14T04:57:03.508Z,-18483.97
2023-11-14T05:00:06.868Z,-18483.28
2023-11-14T05:03:09.874Z,-18483.44
2023-11-14T05:06:12.799Z,-18483.28
2023-11-14T05:09:16.783Z,-18484.25
2023-11-14T05:12:19.717Z,-18482.88
2023-11-14T05:15:22.395Z,-18483.44
2023-11-14T05:18:25.284Z,-18482.88
2023-11-14T05:21:27.708Z,-18483.84
2023-11-14T05:24:30.334Z,-18483.97
2023-11-14T05:27:32.952Z,-18485.09
2023-11-14T05:30:37.345Z,-18485.91
2023-11-14T05:33:40.914Z,-18488.22
2023-11-14T05:36:43.937Z,-18489.06
2023-11-14T05:39:46.568Z,-18489.59
2023-11-14T05:42:49.502Z,-18489.19
2023-11-14T05:45:54.867Z,-18490.69
2023-11-14T05:48:57.761Z,-18492.34
2023-11-14T05:52:00.385Z,-18493.03
2023-11-14T05:55:03.311Z,-18492.63
2023-11-14T05:58:05.979Z,-18494.25
2023-11-14T06:01:08.820Z,-18494.94
2023-11-14T06:04:11.668Z,-18496.03
2023-11-14T06:07:14.279Z,-18497.13
2023-11-14T06:10:17.610Z,-18497.53
2023-11-14T06:13:20.262Z,-18499.59
2023-11-14T06:16:26.479Z,-18500.69
2023-11-14T06:19:31.003Z,-18501.94
2023-11-14T06:22:34.026Z,-18503.72
2023-11-14T06:25:36.580Z,-18504.66
2023-11-14T06:28:39.581Z,-18507.13
2023-11-14T06:31:42.558Z,-18510.44
2023-11-14T06:34:45.231Z,-18512.22
2023-11-14T06:37:47.583Z,-18513.56
2023-11-14T06:40:50.491Z,-18514.66
2023-11-14T06:43:53.169Z,-18515.78
2023-11-14T06:46:55.842Z,-18516.03
2023-11-14T06:49:59.640Z,-18517.00
2023-11-14T06:53:02.449Z,-18516.72
2023-11-14T06:56:05.553Z,-18516.44
2023-11-14T06:59:08.353Z,-18517.97
2023-11-14T07:02:10.827Z,-18518.78
2023-11-14T07:05:13.850Z,-18522.06
2023-11-14T07:08:16.438Z,-18523.03
2023-11-14T07:11:19.654Z,-18526.44
2023-11-14T07:14:25.632Z,-18527.00
2023-11-14T07:17:28.481Z,-18528.63
2023-11-14T07:20:31.116Z,-18530.56
2023-11-14T07:23:33.873Z,-18532.31
2023-11-14T07:26:36.477Z,-18531.66
2023-11-14T07:29:39.028Z,-18532.47
2023-11-14T07:32:42.262Z,-18534.94
2023-11-14T07:35:45.133Z,-18538.22
2023-11-14T07:38:47.580Z,-18539.72
2023-11-14T07:41:52.176Z,-18543.69
2023-11-14T07:44:54.996Z,-18547.78
2023-11-14T07:47:58.371Z,-18549.97
2023-11-14T07:51:01.097Z,-18551.09
2023-11-14T07:54:04.364Z,-18551.63
2023-11-14T07:57:06.825Z,-18552.16
2023-11-14T08:00:14.381Z,-18554.50
2023-11-14T08:03:17.850Z,-18553.94
2023-11-14T08:06:20.739Z,-18554.38
2023-11-14T08:09:23.751Z,-18553.53
2023-11-14T08:12:26.132Z,-18549.16
2023-11-14T08:15:29.069Z,-18547.09
2023-11-14T08:18:31.790Z,-18544.09
2023-11-14T08:21:35.413Z,-18542.59
2023-11-14T08:24:37.733Z,-18541.62
2023-11-14T08:27:40.994Z,-18540.94
2023-11-14T08:30:43.365Z,-18541.91
2023-11-14T08:33:46.324Z,-18543.41
2023-11-14T08:36:48.888Z,-18544.78
2023-11-14T08:39:51.884Z,-18544.50
2023-11-14T08:42:58.778Z,-18544.22
2023-11-14T08:46:03.133Z,-18544.09
2023-11-14T08:49:08.648Z,-18543.13
2023-11-14T08:52:11.418Z,-18543.28
2023-11-14T08:55:13.861Z,-18544.22
2023-11-14T08:58:17.237Z,-18547.09
2023-11-14T09:01:19.813Z,-18549.31
2023-11-14T09:04:22.493Z,-18550.94
2023-11-14T09:07:25.125Z,-18553.81
2023-11-14T09:10:28.711Z,-18557.78
2023-11-14T09:13:32.237Z,-18560.09
2023-11-14T09:16:35.164Z,-18564.22
2023-11-14T09:19:37.424Z,-18565.56
2023-11-14T09:22:40.102Z,-18568.31
2023-11-14T09:25:42.634Z,-18572.12
2023-11-14T09:28:45.621Z,-18576.38
2023-11-14T09:31:48.342Z,-18579.38
2023-11-14T09:34:51.592Z,-18581.44
2023-11-14T09:37:54.456Z,-18581.84
2023-11-14T09:41:00.763Z,-18576.50
2023-11-14T09:44:03.457Z,-18571.03
2023-11-14T09:47:09.802Z,-18568.03
2023-11-14T09:50:13.131Z,-18563.38
2023-11-14T09:53:15.927Z,-18556.28
2023-11-14T09:56:19.452Z,-18551.63
2023-11-14T09:59:22.909Z,-18548.34
2023-11-14T10:02:27.634Z,-18545.47
2023-11-14T10:05:31.650Z,-18542.59
2023-11-14T10:08:38.212Z,-18540.69
2023-11-14T10:14:55.279Z,-18535.75
2023-11-14T10:17:59.079Z,-18537.41
2023-11-14T10:21:02.113Z,-18535.22
2023-11-14T10:24:12.641Z,-18532.19
2023-11-14T10:27:25.913Z,-18532.47
2023-11-14T10:31:15.036Z,-18530.16
2023-11-14T10:34:26.696Z,-18529.19
2023-11-14T10:37:31.049Z,-18529.47
2023-11-14T10:40:44.362Z,-18530.81
2023-11-14T10:43:47.416Z,-18534.66
2023-11-14T10:46:57.107Z,-18537.81
2023-11-14T10:50:00.055Z,-18549.16
2023-11-14T10:53:03.590Z,-18559.00
2023-11-14T10:56:06.948Z,-18566.13
2023-11-14T10:59:14.217Z,-18572.81
2023-11-14T11:02:18.518Z,-18576.22
2023-11-14T11:05:28.244Z,-18579.94
2023-11-14T11:08:34.076Z,-18582.25
2023-11-14T11:11:39.601Z,-18580.47
2023-11-14T11:14:42.601Z,-18576.91
2023-11-14T11:17:46.940Z,-18576.50
2023-11-14T11:20:49.871Z,-18574.03
2023-11-14T11:24:13.719Z,-18579.50
2023-11-14T11:27:22.589Z,-18583.88
2023-11-14T11:30:25.986Z,-18587.31
2023-11-14T11:33:38.733Z,-18595.09
2023-11-14T11:36:41.087Z,-18601.38
2023-11-14T11:40:03.120Z,-18604.09
2023-11-14T11:43:08.945Z,-18607.13
2023-11-14T11:46:31.018Z,-18607.66
2023-11-14T11:49:33.963Z,-18612.44
2023-11-14T11:52:36.703Z,-18616.13
2023-11-14T11:55:39.173Z,-18612.44
2023-11-14T11:58:48.394Z,-18614.06
2023-11-14T12:01:54.260Z,-18612.31
2023-11-14T12:04:59.248Z,-18607.53
2023-11-14T12:08:05.559Z,-18607.94
2023-11-14T12:11:15.872Z,-18608.88
2023-11-14T12:14:19.908Z,-18606.16
2023-11-14T12:17:23.294Z,-18607.66
2023-11-14T12:20:26.335Z,-18607.37
2023-11-14T12:23:30.501Z,-18609.56
2023-11-14T12:26:33.409Z,-18610.94
2023-11-14T12:29:36.363Z,-18609.69
2023-11-14T12:32:38.826Z,-18612.56
2023-11-14T12:35:59.705Z,-18613.66
2023-11-14T12:39:12.734Z,-18617.47
2023-11-14T12:42:21.688Z,-18615.31
2023-11-14T12:45:25.852Z,-18616.66
2023-11-14T12:48:28.725Z,-18620.34
2023-11-14T12:51:34.834Z,-18617.22
2023-11-14T12:54:39.497Z,-18613.12
2023-11-14T12:57:43.782Z,-18610.38
2023-11-14T13:00:46.375Z,-18608.88
2023-11-14T13:03:48.764Z,-18609.97
2023-11-14T13:06:51.461Z,-18606.97
2023-11-14T13:09:54.675Z,-18607.66
2023-11-14T13:12:57.642Z,-18606.28
2023-11-14T13:16:00.346Z,-18608.75
2023-11-14T13:19:03.557Z,-18610.94
2023-11-14T13:22:09.301Z,-18609.56
2023-11-14T13:25:15.056Z,-18603.84
2023-11-14T13:28:17.656Z,-18601.38
2023-11-14T13:31:20.651Z,-18601.91
2023-11-14T13:34:35.417Z,-18602.19
2023-11-14T13:37:39.328Z,-18602.75
2023-11-14T13:40:41.730Z,-18602.06
2023-11-14T13:43:44.789Z,-18601.38
2023-11-14T13:46:47.899Z,-18603.56
2023-11-14T13:49:50.934Z,-18601.66
2023-11-14T13:52:53.916Z,-18603.16
2023-11-14T13:55:57.466Z,-18601.78
2023-11-14T13:59:03.104Z,-18601.09
2023-11-14T14:02:07.427Z,-18599.34
2023-11-14T14:05:11.325Z,-18595.91
2023-11-14T14:08:14.187Z,-18594.56
2023-11-14T14:11:17.159Z,-18593.44
2023-11-14T14:14:20.026Z,-18591.69
2023-11-14T14:17:23.134Z,-18588.53
2023-11-14T14:20:26.696Z,-18587.16
2023-11-14T14:23:29.637Z,-18588.41
2023-11-14T14:26:34.278Z,-18585.53
2023-11-14T14:29:37.319Z,-18583.22
2023-11-14T14:32:40.149Z,-18580.06
2023-11-14T14:35:43.284Z,-18577.31
2023-11-14T14:38:48.388Z,-18574.47
2023-11-14T14:41:53.533Z,-18574.47
2023-11-14T14:44:55.906Z,-18570.63
2023-11-14T14:47:58.696Z,-18570.09
2023-11-14T14:51:01.382Z,-18566.81
2023-11-14T14:54:06.307Z,-18562.97
2023-11-14T14:57:08.924Z,-18559.00
2023-11-14T15:00:19.462Z,-18555.72
2023-11-14T15:03:22.696Z,-18552.44
2023-11-14T15:06:27.882Z,-18549.44
2023-11-14T15:09:31.218Z,-18546.97
2023-11-14T15:12:33.997Z,-18549.72
2023-11-14T15:15:41.298Z,-18551.50
2023-11-14T15:18:44.345Z,-18550.66
2023-11-14T15:21:46.938Z,-18550.25
2023-11-14T15:24:49.576Z,-18546.97
2023-11-14T15:27:51.915Z,-18543.13
2023-11-14T15:30:54.791Z,-18544.91
2023-11-14T15:33:57.398Z,-18555.72
2023-11-14T15:37:02.545Z,-18558.88
2023-11-14T15:40:10.979Z,-18556.81
2023-11-14T15:43:14.005Z,-18555.31
2023-11-14T15:46:21.394Z,-18553.41
2023-11-14T15:49:28.358Z,-18550.66
2023-11-14T15:52:32.375Z,-18547.25
2023-11-14T15:55:34.988Z,-18545.31
2023-11-14T15:58:38.920Z,-18544.78
2023-11-14T16:01:41.830Z,-18543.41
2023-11-14T16:04:44.714Z,-18544.22
2023-11-14T16:07:47.310Z,-18544.09
2023-11-14T16:10:50.269Z,-18547.53
2023-11-14T16:13:52.593Z,-18548.88
2023-11-14T16:16:55.579Z,-18549.72
2023-11-14T16:19:59.000Z,-18548.88
2023-11-14T16:23:01.670Z,-18547.38
2023-11-14T16:26:04.165Z,-18548.63
2023-11-14T16:29:06.970Z,-18548.88
2023-11-14T16:32:09.705Z,-18548.06
2023-11-14T16:35:12.520Z,-18545.47
2023-11-14T16:38:15.862Z,-18542.47
2023-11-14T16:41:18.950Z,-18539.84
2023-11-14T16:44:21.732Z,-18539.59
2023-11-14T16:47:24.944Z,-18539.44
2023-11-14T16:50:27.582Z,-18539.59
2023-11-14T16:53:30.187Z,-18538.06
2023-11-14T16:56:32.720Z,-18538.34
2023-11-14T16:59:35.744Z,-18542.88
2023-11-14T17:02:38.607Z,-18544.09
2023-11-14T17:05:41.809Z,-18545.75
2023-11-14T17:08:45.766Z,-18549.44
2023-11-14T17:11:48.609Z,-18550.53
2023-11-14T17:14:50.954Z,-18550.81
2023-11-14T17:17:53.704Z,-18552.72
2023-11-14T17:20:56.354Z,-18550.81
2023-11-14T17:23:59.173Z,-18549.56
2023-11-14T17:27:02.569Z,-18547.09
2023-11-14T17:30:06.790Z,-18548.34
2023-11-14T17:33:10.736Z,-18548.63
2023-11-14T17:36:13.423Z,-18551.34
2023-11-14T17:39:16.848Z,-18552.16
2023-11-14T17:42:19.839Z,-18552.84
2023-11-14T17:45:22.451Z,-18554.09
2023-11-14T17:48:25.370Z,-18555.19
2023-11-14T17:51:38.290Z,-18560.50
2023-11-14T17:54:44.180Z,-18562.16
2023-11-14T17:57:46.624Z,-18564.34
2023-11-14T18:00:50.005Z,-18566.25
2023-11-14T18:03:53.209Z,-18563.13
2023-11-14T18:06:56.030Z,-18561.75
2023-11-14T18:09:59.030Z,-18558.47
2023-11-14T18:13:01.953Z,-18557.09
2023-11-14T18:16:05.332Z,-18560.09
2023-11-14T18:19:07.748Z,-18561.88
2023-11-14T18:22:10.959Z,-18563.38
2023-11-14T18:25:13.654Z,-18572.97
2023-11-14T18:28:16.522Z,-18575.97
2023-11-14T18:31:19.148Z,-18576.22
2023-11-14T18:34:22.081Z,-18572.97
2023-11-14T18:37:27.902Z,-18568.59
2023-11-14T18:40:32.792Z,-18565.31
2023-11-14T18:43:35.519Z,-18564.75
2023-11-14T18:46:38.531Z,-18565.03
2023-11-14T18:49:41.064Z,-18567.47
2023-11-14T18:52:43.848Z,-18572.00
2023-11-14T18:55:47.802Z,-18572.53
2023-11-14T18:58:50.558Z,-18576.91
2023-11-14T19:01:53.187Z,-18575.16
2023-11-14T19:04:55.813Z,-18563.38
2023-11-14T19:07:58.212Z,-18556.53
2023-11-14T19:11:00.980Z,-18557.38
2023-11-14T19:14:04.534Z,-18566.94
2023-11-14T19:17:07.797Z,-18564.75
2023-11-14T19:20:11.983Z,-18567.06
2023-11-14T19:23:41.242Z,-18570.34
2023-11-14T19:26:38.728Z,-18569.94
2023-11-14T19:29:41.784Z,-18569.81
2023-11-14T19:32:45.276Z,-18570.63
2023-11-14T19:35:48.355Z,-18571.03
2023-11-14T19:38:50.712Z,-18572.97
2023-11-14T19:41:53.325Z,-18574.31
2023-11-14T19:44:55.634Z,-18575.16
2023-11-14T19:47:59.007Z,-18573.50
2023-11-14T19:51:01.370Z,-18571.88
2023-11-14T19:54:04.772Z,-18570.22
2023-11-14T19:57:08.840Z,-18566.66
2023-11-14T20:00:15.206Z,-18564.75
2023-11-14T20:03:18.013Z,-18565.03
2023-11-14T20:06:20.500Z,-18565.56
2023-11-14T20:09:23.179Z,-18563.13
2023-11-14T20:12:25.898Z,-18559.16
2023-11-14T20:15:28.798Z,-18555.72
2023-11-14T20:18:31.480Z,-18553.94
2023-11-14T20:21:34.729Z,-18549.16
2023-11-14T20:24:37.466Z,-18546.44
2023-11-14T20:27:42.040Z,-18545.88
2023-11-14T20:30:44.324Z,-18545.47
2023-11-14T20:33:46.959Z,-18541.09
2023-11-14T20:36:49.784Z,-18537.53
2023-11-14T20:39:53.036Z,-18531.91
2023-11-14T20:42:56.182Z,-18525.34
2023-11-14T20:45:58.827Z,-18522.47
2023-11-14T20:49:01.487Z,-18519.06
2023-11-14T20:52:04.903Z,-18517.28
2023-11-14T20:55:07.627Z,-18516.03
2023-11-14T20:58:11.582Z,-18515.63
2023-11-14T21:01:14.812Z,-18514.94
2023-11-14T21:04:17.867Z,-18515.22
2023-11-14T21:07:20.241Z,-18514.94
2023-11-14T21:10:22.939Z,-18515.22
2023-11-14T21:13:25.300Z,-18515.63
2023-11-14T21:16:28.008Z,-18515.63
2023-11-14T21:19:30.447Z,-18514.94
2023-11-14T21:22:33.070Z,-18514.13
2023-11-14T21:25:35.438Z,-18513.44
2023-11-14T21:28:38.194Z,-18510.56
2023-11-14T21:31:44.760Z,-18510.28
2023-11-14T21:34:47.503Z,-18507.97
2023-11-14T21:37:51.357Z,-18505.06
2023-11-14T21:40:55.005Z,-18505.22
2023-11-14T21:43:57.942Z,-18503.16
2023-11-14T21:47:02.220Z,-18503.03
2023-11-14T21:50:04.829Z,-18501.66
2023-11-14T21:53:09.391Z,-18500.16
2023-11-14T21:56:12.124Z,-18499.88
2023-11-14T21:59:15.164Z,-18499.59
2023-11-14T22:02:17.869Z,-18500.16
2023-11-14T22:05:20.812Z,-18499.47
2023-11-14T22:08:23.565Z,-18499.47
2023-11-14T22:11:26.753Z,-18500.16
2023-11-14T22:14:29.286Z,-18499.88
2023-11-14T22:17:32.483Z,-18500.44
2023-11-14T22:20:35.147Z,-18499.88
2023-11-14T22:23:38.515Z,-18500.16
2023-11-14T22:26:41.154Z,-18503.31
2023-11-14T22:29:44.106Z,-18504.25
2023-11-14T22:32:47.344Z,-18504.25
2023-11-14T22:35:50.522Z,-18503.97
2023-11-14T22:38:53.736Z,-18503.44
2023-11-14T22:41:57.356Z,-18502.19
2023-11-14T22:44:59.936Z,-18499.88
2023-11-14T22:48:02.698Z,-18498.50
2023-11-14T22:51:05.555Z,-18497.28
2023-11-14T22:54:08.412Z,-18495.50
2023-11-14T22:57:11.088Z,-18493.72
2023-11-14T23:00:32.640Z,-18493.31
2023-11-14T23:03:36.704Z,-18493.31
2023-11-14T23:06:42.361Z,-18493.16
2023-11-14T23:09:44.781Z,-18493.44
2023-11-14T23:12:47.652Z,-18493.56
2023-11-14T23:15:50.096Z,-18492.34
2023-11-14T23:18:53.754Z,-18493.31
2023-11-14T23:21:59.836Z,-18492.47
2023-11-14T23:25:03.117Z,-18492.34
2023-11-14T23:28:06.202Z,-18491.38
2023-11-14T23:31:08.977Z,-18490.41
2023-11-14T23:34:11.717Z,-18489.88
2023-11-14T23:37:14.617Z,-18490.16
2023-11-14T23:40:20.806Z,-18489.88
2023-11-14T23:43:23.820Z,-18489.75
2023-11-14T23:46:26.551Z,-18489.19
2023-11-14T23:49:30.266Z,-18487.41
2023-11-14T23:52:32.909Z,-18486.44
2023-11-14T23:55:35.628Z,-18485.34
2023-11-14T23:58:37.992Z,-18485.09
